sensor_id;sensor_type;location;lat;lon;timestamp;pressure;altitude;pressure_sealevel;temperature;humidity
55171;BME280;41060;47.510;8.680;2022-10-16T00:01:07;97065.59;;;16.04;60.45
55171;BME280;41060;47.510;8.680;2022-10-16T00:03:34;97056.91;;;16.02;60.29
55171;BME280;41060;47.510;8.680;2022-10-16T00:06:02;97061.22;;;16.03;60.28
55171;BME280;41060;47.510;8.680;2022-10-16T00:08:31;97055.38;;;15.99;60.56
55171;BME280;41060;47.510;8.680;2022-10-16T00:10:59;97060.09;;;16.05;60.31
55171;BME280;41060;47.510;8.680;2022-10-16T00:13:26;97061.91;;;16.05;60.42
55171;BME280;41060;47.510;8.680;2022-10-16T00:15:58;97053.63;;;16.08;60.36
55171;BME280;41060;47.510;8.680;2022-10-16T00:18:25;97047.81;;;16.13;60.35
55171;BME280;41060;47.510;8.680;2022-10-16T00:20:52;97046.03;;;16.21;60.38
55171;BME280;41060;47.510;8.680;2022-10-16T00:23:20;97054.94;;;16.30;59.97
55171;BME280;41060;47.510;8.680;2022-10-16T00:25:59;97048.09;;;16.35;60.13
55171;BME280;41060;47.510;8.680;2022-10-16T00:28:27;97051.78;;;16.34;59.89
55171;BME280;41060;47.510;8.680;2022-10-16T00:30:54;97050.63;;;16.37;59.82
55171;BME280;41060;47.510;8.680;2022-10-16T00:33:21;97058.84;;;16.18;60.19
55171;BME280;41060;47.510;8.680;2022-10-16T00:35:49;97024.59;;;15.87;60.50
55171;BME280;41060;47.510;8.680;2022-10-16T00:38:16;97061.22;;;16.03;60.47
55171;BME280;41060;47.510;8.680;2022-10-16T00:40:43;97073.31;;;15.89;60.90
55171;BME280;41060;47.510;8.680;2022-10-16T00:43:38;97046.50;;;15.73;61.11
55171;BME280;41060;47.510;8.680;2022-10-16T00:46:11;97058.78;;;15.84;61.09
55171;BME280;41060;47.510;8.680;2022-10-16T00:48:40;97078.22;;;15.94;60.91
55171;BME280;41060;47.510;8.680;2022-10-16T00:51:07;97062.13;;;15.86;60.99
55171;BME280;41060;47.510;8.680;2022-10-16T00:53:35;97074.38;;;15.96;60.94
55171;BME280;41060;47.510;8.680;2022-10-16T00:56:03;97046.28;;;15.84;61.29
55171;BME280;41060;47.510;8.680;2022-10-16T00:58:30;97069.66;;;16.08;60.86
55171;BME280;41060;47.510;8.680;2022-10-16T01:00:58;97069.56;;;16.00;61.36
55171;BME280;41060;47.510;8.680;2022-10-16T01:03:27;97072.25;;;16.00;61.43
55171;BME280;41060;47.510;8.680;2022-10-16T01:06:05;97045.06;;;15.79;61.22
55171;BME280;41060;47.510;8.680;2022-10-16T01:08:47;97066.41;;;16.04;61.26
55171;BME280;41060;47.510;8.680;2022-10-16T01:11:22;97071.56;;;16.16;60.74
55171;BME280;41060;47.510;8.680;2022-10-16T01:13:55;97068.03;;;16.15;60.93
55171;BME280;41060;47.510;8.680;2022-10-16T01:16:34;97048.94;;;16.10;60.48
55171;BME280;41060;47.510;8.680;2022-10-16T01:19:09;97060.72;;;16.25;60.53
55171;BME280;41060;47.510;8.680;2022-10-16T01:21:40;97070.13;;;16.29;60.46
55171;BME280;41060;47.510;8.680;2022-10-16T01:24:17;97065.28;;;16.33;60.26
55171;BME280;41060;47.510;8.680;2022-10-16T01:27:04;97068.13;;;16.31;60.11
55171;BME280;41060;47.510;8.680;2022-10-16T01:29:36;97069.47;;;16.35;60.11
55171;BME280;41060;47.510;8.680;2022-10-16T01:32:11;97075.25;;;16.23;60.64
55171;BME280;41060;47.510;8.680;2022-10-16T01:34:47;97083.78;;;16.00;61.13
55171;BME280;41060;47.510;8.680;2022-10-16T01:37:18;97086.81;;;15.88;61.35
55171;BME280;41060;47.510;8.680;2022-10-16T01:39:48;97101.34;;;15.67;61.83
55171;BME280;41060;47.510;8.680;2022-10-16T01:42:21;97059.44;;;15.60;61.73
55171;BME280;41060;47.510;8.680;2022-10-16T01:44:51;97090.69;;;15.67;61.92
55171;BME280;41060;47.510;8.680;2022-10-16T01:47:22;97095.72;;;15.70;62.06
55171;BME280;41060;47.510;8.680;2022-10-16T01:49:56;97095.66;;;15.62;62.10
55171;BME280;41060;47.510;8.680;2022-10-16T01:52:25;97097.22;;;15.73;61.88
55171;BME280;41060;47.510;8.680;2022-10-16T01:54:54;97087.31;;;15.83;61.54
55171;BME280;41060;47.510;8.680;2022-10-16T01:57:24;97081.66;;;15.86;61.28
55171;BME280;41060;47.510;8.680;2022-10-16T01:59:56;97086.22;;;15.94;61.06
55171;BME280;41060;47.510;8.680;2022-10-16T02:02:26;97076.75;;;15.99;60.87
55171;BME280;41060;47.510;8.680;2022-10-16T02:04:58;97080.63;;;16.05;60.79
55171;BME280;41060;47.510;8.680;2022-10-16T02:07:28;97083.69;;;16.10;60.83
55171;BME280;41060;47.510;8.680;2022-10-16T02:09:55;97086.38;;;15.92;61.40
55171;BME280;41060;47.510;8.680;2022-10-16T02:12:27;97092.66;;;15.83;61.79
55171;BME280;41060;47.510;8.680;2022-10-16T02:14:55;97089.13;;;15.83;61.69
55171;BME280;41060;47.510;8.680;2022-10-16T02:17:23;97072.75;;;15.78;61.31
55171;BME280;41060;47.510;8.680;2022-10-16T02:19:51;97080.06;;;15.93;61.21
55171;BME280;41060;47.510;8.680;2022-10-16T02:22:24;97094.19;;;15.86;61.56
55171;BME280;41060;47.510;8.680;2022-10-16T02:24:57;97095.56;;;15.72;61.80
55171;BME280;41060;47.510;8.680;2022-10-16T02:27:31;97101.81;;;15.63;62.00
55171;BME280;41060;47.510;8.680;2022-10-16T02:30:03;97087.72;;;15.70;61.69
55171;BME280;41060;47.510;8.680;2022-10-16T02:32:36;97087.09;;;15.77;61.18
55171;BME280;41060;47.510;8.680;2022-10-16T02:35:07;97086.94;;;15.78;61.21
55171;BME280;41060;47.510;8.680;2022-10-16T02:37:35;97076.34;;;15.68;61.43
55171;BME280;41060;47.510;8.680;2022-10-16T02:40:04;97086.72;;;15.71;61.14
55171;BME280;41060;47.510;8.680;2022-10-16T02:42:35;97084.06;;;15.71;60.90
55171;BME280;41060;47.510;8.680;2022-10-16T02:45:03;97092.97;;;15.62;61.60
55171;BME280;41060;47.510;8.680;2022-10-16T02:47:30;97078.66;;;15.63;61.46
55171;BME280;41060;47.510;8.680;2022-10-16T02:49:56;97068.34;;;15.68;61.22
55171;BME280;41060;47.510;8.680;2022-10-16T02:52:24;97072.06;;;15.76;61.31
55171;BME280;41060;47.510;8.680;2022-10-16T02:54:51;97063.91;;;15.77;61.17
55171;BME280;41060;47.510;8.680;2022-10-16T02:57:18;97081.47;;;15.44;61.89
55171;BME280;41060;47.510;8.680;2022-10-16T02:59:46;97104.56;;;15.18;62.88
55171;BME280;41060;47.510;8.680;2022-10-16T03:02:15;97081.78;;;15.23;62.48
55171;BME280;41060;47.510;8.680;2022-10-16T03:04:41;97083.16;;;15.45;61.79
55171;BME280;41060;47.510;8.680;2022-10-16T03:07:11;97079.84;;;15.51;61.64
55171;BME280;41060;47.510;8.680;2022-10-16T03:09:37;97090.78;;;15.58;61.80
55171;BME280;41060;47.510;8.680;2022-10-16T03:12:04;97096.19;;;15.48;61.82
55171;BME280;41060;47.510;8.680;2022-10-16T03:14:32;97090.50;;;15.43;62.03
55171;BME280;41060;47.510;8.680;2022-10-16T03:17:00;97085.16;;;15.43;61.83
55171;BME280;41060;47.510;8.680;2022-10-16T03:19:26;97091.84;;;15.47;61.75
55171;BME280;41060;47.510;8.680;2022-10-16T03:21:54;97098.31;;;15.27;62.01
55171;BME280;41060;47.510;8.680;2022-10-16T03:24:20;97103.94;;;15.24;61.83
55171;BME280;41060;47.510;8.680;2022-10-16T03:26:47;97104.66;;;15.26;61.67
55171;BME280;41060;47.510;8.680;2022-10-16T03:29:14;97100.53;;;15.31;61.40
55171;BME280;41060;47.510;8.680;2022-10-16T03:31:41;97101.91;;;15.18;62.21
55171;BME280;41060;47.510;8.680;2022-10-16T03:34:09;97095.75;;;15.08;62.08
55171;BME280;41060;47.510;8.680;2022-10-16T03:36:36;97114.53;;;14.88;62.48
55171;BME280;41060;47.510;8.680;2022-10-16T03:39:03;97117.44;;;14.95;62.04
55171;BME280;41060;47.510;8.680;2022-10-16T03:41:30;97122.91;;;14.93;62.59
55171;BME280;41060;47.510;8.680;2022-10-16T03:43:57;97123.75;;;14.94;62.67
55171;BME280;41060;47.510;8.680;2022-10-16T03:46:24;97123.00;;;15.02;62.30
55171;BME280;41060;47.510;8.680;2022-10-16T03:48:50;97118.06;;;15.07;61.80
55171;BME280;41060;47.510;8.680;2022-10-16T03:51:19;97125.06;;;15.08;61.67
55171;BME280;41060;47.510;8.680;2022-10-16T03:53:46;97117.66;;;15.11;61.54
55171;BME280;41060;47.510;8.680;2022-10-16T03:56:13;97113.44;;;15.09;61.55
55171;BME280;41060;47.510;8.680;2022-10-16T03:58:40;97116.91;;;15.19;61.45
55171;BME280;41060;47.510;8.680;2022-10-16T04:01:07;97122.94;;;15.21;61.28
55171;BME280;41060;47.510;8.680;2022-10-16T04:03:34;97113.94;;;15.22;61.35
55171;BME280;41060;47.510;8.680;2022-10-16T04:06:01;97083.84;;;15.12;61.24
55171;BME280;41060;47.510;8.680;2022-10-16T04:08:31;97104.31;;;15.29;61.29
55171;BME280;41060;47.510;8.680;2022-10-16T04:11:00;97110.06;;;15.34;61.41
55171;BME280;41060;47.510;8.680;2022-10-16T04:13:27;97106.72;;;15.32;61.64
55171;BME280;41060;47.510;8.680;2022-10-16T04:15:54;97117.53;;;15.30;61.81
55171;BME280;41060;47.510;8.680;2022-10-16T04:18:21;97119.50;;;15.28;61.89
55171;BME280;41060;47.510;8.680;2022-10-16T04:20:49;97130.34;;;15.27;61.97
55171;BME280;41060;47.510;8.680;2022-10-16T04:23:15;97128.19;;;15.30;61.98
55171;BME280;41060;47.510;8.680;2022-10-16T04:25:43;97126.75;;;15.36;61.62
55171;BME280;41060;47.510;8.680;2022-10-16T04:28:11;97129.03;;;15.31;61.98
55171;BME280;41060;47.510;8.680;2022-10-16T04:30:38;97123.72;;;15.04;62.60
55171;BME280;41060;47.510;8.680;2022-10-16T04:33:05;97128.47;;;14.82;63.29
55171;BME280;41060;47.510;8.680;2022-10-16T04:35:32;97136.47;;;14.82;63.30
55171;BME280;41060;47.510;8.680;2022-10-16T04:37:59;97144.22;;;14.76;63.51
55171;BME280;41060;47.510;8.680;2022-10-16T04:40:25;97145.34;;;14.73;63.59
55171;BME280;41060;47.510;8.680;2022-10-16T04:42:54;97145.09;;;14.67;63.61
55171;BME280;41060;47.510;8.680;2022-10-16T04:45:21;97141.13;;;14.71;63.50
55171;BME280;41060;47.510;8.680;2022-10-16T04:47:47;97148.28;;;14.70;63.58
55171;BME280;41060;47.510;8.680;2022-10-16T04:50:15;97152.09;;;14.68;63.76
55171;BME280;41060;47.510;8.680;2022-10-16T04:52:42;97148.59;;;14.67;63.97
55171;BME280;41060;47.510;8.680;2022-10-16T04:55:08;97162.06;;;14.66;64.20
55171;BME280;41060;47.510;8.680;2022-10-16T04:57:36;97153.84;;;14.77;63.73
55171;BME280;41060;47.510;8.680;2022-10-16T05:00:05;97163.00;;;14.74;63.96
55171;BME280;41060;47.510;8.680;2022-10-16T05:02:33;97160.94;;;14.68;64.16
55171;BME280;41060;47.510;8.680;2022-10-16T05:05:00;97155.63;;;14.58;64.42
55171;BME280;41060;47.510;8.680;2022-10-16T05:07:29;97160.09;;;14.68;63.87
55171;BME280;41060;47.510;8.680;2022-10-16T05:09:56;97161.78;;;14.69;64.01
55171;BME280;41060;47.510;8.680;2022-10-16T05:12:23;97163.34;;;14.62;64.03
55171;BME280;41060;47.510;8.680;2022-10-16T05:14:50;97165.25;;;14.69;63.75
55171;BME280;41060;47.510;8.680;2022-10-16T05:17:18;97170.69;;;14.77;63.28
55171;BME280;41060;47.510;8.680;2022-10-16T05:19:45;97161.97;;;14.85;62.83
55171;BME280;41060;47.510;8.680;2022-10-16T05:22:12;97162.66;;;14.87;63.50
55171;BME280;41060;47.510;8.680;2022-10-16T05:24:39;97158.28;;;14.95;62.81
55171;BME280;41060;47.510;8.680;2022-10-16T05:27:06;97147.16;;;15.00;62.70
55171;BME280;41060;47.510;8.680;2022-10-16T05:29:33;97146.72;;;15.05;62.83
55171;BME280;41060;47.510;8.680;2022-10-16T05:32:00;97153.28;;;15.10;62.69
55171;BME280;41060;47.510;8.680;2022-10-16T05:34:29;97158.38;;;15.13;62.85
55171;BME280;41060;47.510;8.680;2022-10-16T05:36:56;97161.03;;;15.04;63.09
55171;BME280;41060;47.510;8.680;2022-10-16T05:39:26;97166.22;;;15.05;62.93
55171;BME280;41060;47.510;8.680;2022-10-16T05:41:53;97156.78;;;15.11;62.90
55171;BME280;41060;47.510;8.680;2022-10-16T05:44:22;97160.66;;;14.99;63.25
55171;BME280;41060;47.510;8.680;2022-10-16T05:46:49;97167.25;;;14.94;63.34
55171;BME280;41060;47.510;8.680;2022-10-16T05:49:16;97172.25;;;14.70;64.11
55171;BME280;41060;47.510;8.680;2022-10-16T05:51:44;97170.44;;;14.71;64.06
55171;BME280;41060;47.510;8.680;2022-10-16T05:54:11;97177.75;;;14.69;65.28
55171;BME280;41060;47.510;8.680;2022-10-16T05:56:41;97180.13;;;14.72;65.50
55171;BME280;41060;47.510;8.680;2022-10-16T05:59:08;97182.75;;;14.81;65.04
55171;BME280;41060;47.510;8.680;2022-10-16T06:01:36;97178.06;;;14.93;64.89
55171;BME280;41060;47.510;8.680;2022-10-16T06:04:04;97181.91;;;14.81;64.04
55171;BME280;41060;47.510;8.680;2022-10-16T06:06:30;97183.75;;;14.71;64.14
55171;BME280;41060;47.510;8.680;2022-10-16T06:08:58;97178.50;;;14.51;64.75
55171;BME280;41060;47.510;8.680;2022-10-16T06:11:27;97177.47;;;14.72;64.15
55171;BME280;41060;47.510;8.680;2022-10-16T06:13:56;97143.53;;;14.64;63.57
55171;BME280;41060;47.510;8.680;2022-10-16T06:16:23;97174.50;;;15.02;63.08
55171;BME280;41060;47.510;8.680;2022-10-16T06:18:51;97175.34;;;15.12;62.44
55171;BME280;41060;47.510;8.680;2022-10-16T06:21:20;97145.88;;;15.04;62.13
55171;BME280;41060;47.510;8.680;2022-10-16T06:23:47;97150.28;;;14.95;62.29
55171;BME280;41060;47.510;8.680;2022-10-16T06:26:18;97189.72;;;14.92;63.40
55171;BME280;41060;47.510;8.680;2022-10-16T06:28:46;97189.38;;;15.05;62.73
55171;BME280;41060;47.510;8.680;2022-10-16T06:31:13;97192.84;;;15.15;62.57
55171;BME280;41060;47.510;8.680;2022-10-16T06:33:41;97191.47;;;15.11;62.67
55171;BME280;41060;47.510;8.680;2022-10-16T06:36:09;97205.63;;;14.84;63.54
55171;BME280;41060;47.510;8.680;2022-10-16T06:38:37;97215.81;;;14.61;63.98
55171;BME280;41060;47.510;8.680;2022-10-16T06:41:05;97214.28;;;14.49;64.43
55171;BME280;41060;47.510;8.680;2022-10-16T06:43:33;97216.06;;;14.58;64.25
55171;BME280;41060;47.510;8.680;2022-10-16T06:46:02;97234.53;;;14.69;63.74
55171;BME280;41060;47.510;8.680;2022-10-16T06:48:30;97196.47;;;14.40;64.25
55171;BME280;41060;47.510;8.680;2022-10-16T06:50:59;97216.34;;;14.55;64.13
55171;BME280;41060;47.510;8.680;2022-10-16T06:53:27;97235.00;;;14.55;64.73
55171;BME280;41060;47.510;8.680;2022-10-16T06:55:54;97237.84;;;14.44;65.17
55171;BME280;41060;47.510;8.680;2022-10-16T06:58:24;97253.25;;;14.50;64.99
55171;BME280;41060;47.510;8.680;2022-10-16T07:00:56;97254.09;;;14.60;65.04
55171;BME280;41060;47.510;8.680;2022-10-16T07:03:23;97254.34;;;14.67;64.71
55171;BME280;41060;47.510;8.680;2022-10-16T07:05:50;97212.84;;;14.54;64.17
55171;BME280;41060;47.510;8.680;2022-10-16T07:08:17;97256.22;;;14.93;63.86
55171;BME280;41060;47.510;8.680;2022-10-16T07:10:44;97266.19;;;14.91;64.72
55171;BME280;41060;47.510;8.680;2022-10-16T07:13:11;97271.59;;;14.72;64.85
55171;BME280;41060;47.510;8.680;2022-10-16T07:15:38;97273.53;;;14.70;64.73
55171;BME280;41060;47.510;8.680;2022-10-16T07:18:07;97264.69;;;14.79;64.51
55171;BME280;41060;47.510;8.680;2022-10-16T07:20:34;97258.97;;;14.65;64.56
55171;BME280;41060;47.510;8.680;2022-10-16T07:23:01;97266.69;;;14.68;64.66
55171;BME280;41060;47.510;8.680;2022-10-16T07:25:28;97269.50;;;14.66;64.59
55171;BME280;41060;47.510;8.680;2022-10-16T07:27:54;97271.97;;;14.77;64.39
55171;BME280;41060;47.510;8.680;2022-10-16T07:30:22;97278.72;;;14.81;64.15
55171;BME280;41060;47.510;8.680;2022-10-16T07:32:49;97276.72;;;14.93;63.78
55171;BME280;41060;47.510;8.680;2022-10-16T07:35:17;97298.59;;;14.96;63.71
55171;BME280;41060;47.510;8.680;2022-10-16T07:37:45;97296.91;;;14.95;63.93
55171;BME280;41060;47.510;8.680;2022-10-16T07:40:12;97291.25;;;15.18;63.57
55171;BME280;41060;47.510;8.680;2022-10-16T07:42:39;97303.03;;;15.25;63.21
55171;BME280;41060;47.510;8.680;2022-10-16T07:45:06;97307.69;;;15.04;64.08
55171;BME280;41060;47.510;8.680;2022-10-16T07:47:34;97312.66;;;14.89;65.01
55171;BME280;41060;47.510;8.680;2022-10-16T07:50:00;97303.78;;;14.98;64.92
55171;BME280;41060;47.510;8.680;2022-10-16T07:52:29;97311.50;;;15.01;64.76
55171;BME280;41060;47.510;8.680;2022-10-16T07:54:56;97310.63;;;15.20;65.07
55171;BME280;41060;47.510;8.680;2022-10-16T07:57:23;97314.41;;;15.27;65.24
55171;BME280;41060;47.510;8.680;2022-10-16T07:59:49;97315.28;;;15.45;64.54
55171;BME280;41060;47.510;8.680;2022-10-16T08:02:17;97314.41;;;15.54;64.38
55171;BME280;41060;47.510;8.680;2022-10-16T08:04:46;97313.84;;;15.51;64.66
55171;BME280;41060;47.510;8.680;2022-10-16T08:07:13;97315.22;;;15.64;64.40
55171;BME280;41060;47.510;8.680;2022-10-16T08:09:41;97307.53;;;15.79;64.00
55171;BME280;41060;47.510;8.680;2022-10-16T08:12:08;97306.41;;;15.99;63.48
55171;BME280;41060;47.510;8.680;2022-10-16T08:14:36;97277.34;;;15.96;62.99
55171;BME280;41060;47.510;8.680;2022-10-16T08:17:03;97307.53;;;16.06;63.53
55171;BME280;41060;47.510;8.680;2022-10-16T08:19:30;97311.72;;;16.09;63.61
55171;BME280;41060;47.510;8.680;2022-10-16T08:21:59;97315.25;;;16.09;63.86
55171;BME280;41060;47.510;8.680;2022-10-16T08:24:27;97310.97;;;16.17;63.18
55171;BME280;41060;47.510;8.680;2022-10-16T08:26:57;97313.22;;;15.94;64.59
55171;BME280;41060;47.510;8.680;2022-10-16T08:29:24;97317.72;;;15.93;64.98
55171;BME280;41060;47.510;8.680;2022-10-16T08:31:51;97326.78;;;16.00;65.23
55171;BME280;41060;47.510;8.680;2022-10-16T08:34:18;97331.91;;;15.94;65.77
55171;BME280;41060;47.510;8.680;2022-10-16T08:36:47;97331.81;;;16.03;65.94
55171;BME280;41060;47.510;8.680;2022-10-16T08:39:15;97332.94;;;16.10;65.92
55171;BME280;41060;47.510;8.680;2022-10-16T08:42:18;97336.00;;;16.16;65.46
55171;BME280;41060;47.510;8.680;2022-10-16T08:45:06;97353.84;;;16.33;64.49
55171;BME280;41060;47.510;8.680;2022-10-16T08:47:45;97317.50;;;16.40;63.84
55171;BME280;41060;47.510;8.680;2022-10-16T08:50:21;97346.50;;;16.70;63.90
55171;BME280;41060;47.510;8.680;2022-10-16T08:52:50;97350.03;;;16.71;62.93
55171;BME280;41060;47.510;8.680;2022-10-16T08:55:30;97345.53;;;16.71;63.47
55171;BME280;41060;47.510;8.680;2022-10-16T08:57:59;97348.78;;;17.01;63.34
55171;BME280;41060;47.510;8.680;2022-10-16T09:00:27;97349.13;;;17.23;62.66
55171;BME280;41060;47.510;8.680;2022-10-16T09:03:00;97335.53;;;17.43;62.34
55171;BME280;41060;47.510;8.680;2022-10-16T09:08:37;97343.44;;;17.86;60.12
55171;BME280;41060;47.510;8.680;2022-10-16T09:11:13;97347.47;;;17.90;60.40
55171;BME280;41060;47.510;8.680;2022-10-16T09:13:48;97347.69;;;18.05;59.44
55171;BME280;41060;47.510;8.680;2022-10-16T09:16:22;97346.53;;;18.16;59.74
55171;BME280;41060;47.510;8.680;2022-10-16T09:18:55;97350.16;;;17.98;59.47
55171;BME280;41060;47.510;8.680;2022-10-16T09:21:26;97352.63;;;17.84;59.75
55171;BME280;41060;47.510;8.680;2022-10-16T09:23:57;97356.22;;;18.00;59.68
55171;BME280;41060;47.510;8.680;2022-10-16T09:26:25;97355.56;;;18.07;60.09
55171;BME280;41060;47.510;8.680;2022-10-16T09:28:53;97358.94;;;18.17;59.89
55171;BME280;41060;47.510;8.680;2022-10-16T09:31:22;97359.47;;;18.28;58.80
55171;BME280;41060;47.510;8.680;2022-10-16T09:33:52;97360.63;;;18.34;59.06
55171;BME280;41060;47.510;8.680;2022-10-16T09:36:20;97369.47;;;18.68;59.20
55171;BME280;41060;47.510;8.680;2022-10-16T09:38:50;97359.22;;;18.96;57.82
55171;BME280;41060;47.510;8.680;2022-10-16T09:41:21;97363.88;;;19.27;57.31
55171;BME280;41060;47.510;8.680;2022-10-16T09:43:54;97357.28;;;19.62;55.75
55171;BME280;41060;47.510;8.680;2022-10-16T09:46:27;97358.69;;;19.88;54.73
55171;BME280;41060;47.510;8.680;2022-10-16T09:48:57;97356.91;;;20.12;54.08
55171;BME280;41060;47.510;8.680;2022-10-16T09:51:27;97353.81;;;20.31;53.62
55171;BME280;41060;47.510;8.680;2022-10-16T09:53:56;97355.84;;;20.21;53.64
55171;BME280;41060;47.510;8.680;2022-10-16T09:56:26;97358.34;;;19.91;53.40
55171;BME280;41060;47.510;8.680;2022-10-16T09:58:56;97354.28;;;19.95;54.91
55171;BME280;41060;47.510;8.680;2022-10-16T10:01:28;97360.69;;;20.33;53.57
55171;BME280;41060;47.510;8.680;2022-10-16T10:03:57;97348.13;;;20.49;54.28
55171;BME280;41060;47.510;8.680;2022-10-16T10:06:30;97349.88;;;20.87;52.78
55171;BME280;41060;47.510;8.680;2022-10-16T10:09:15;97340.50;;;21.06;52.39
55171;BME280;41060;47.510;8.680;2022-10-16T10:11:48;97340.97;;;21.09;50.63
55171;BME280;41060;47.510;8.680;2022-10-16T10:14:24;97343.09;;;21.14;51.02
55171;BME280;41060;47.510;8.680;2022-10-16T10:16:51;97339.22;;;21.31;51.30
55171;BME280;41060;47.510;8.680;2022-10-16T10:19:21;97344.19;;;21.57;50.44
55171;BME280;41060;47.510;8.680;2022-10-16T10:21:49;97341.13;;;21.75;50.29
55171;BME280;41060;47.510;8.680;2022-10-16T10:24:17;97337.97;;;21.86;49.14
55171;BME280;41060;47.510;8.680;2022-10-16T10:26:53;97341.19;;;21.96;49.38
55171;BME280;41060;47.510;8.680;2022-10-16T10:29:40;97340.03;;;22.20;48.80
55171;BME280;41060;47.510;8.680;2022-10-16T10:32:21;97330.63;;;22.31;48.38
55171;BME280;41060;47.510;8.680;2022-10-16T10:35:04;97339.31;;;22.11;47.90
55171;BME280;41060;47.510;8.680;2022-10-16T10:37:42;97334.28;;;22.23;49.07
55171;BME280;41060;47.510;8.680;2022-10-16T10:40:22;97339.28;;;22.26;48.72
55171;BME280;41060;47.510;8.680;2022-10-16T10:42:56;97331.06;;;22.34;48.67
55171;BME280;41060;47.510;8.680;2022-10-16T10:45:38;97322.66;;;22.22;47.83
55171;BME280;41060;47.510;8.680;2022-10-16T10:48:32;97322.41;;;22.53;47.02
55171;BME280;41060;47.510;8.680;2022-10-16T10:51:09;97325.59;;;22.85;48.69
55171;BME280;41060;47.510;8.680;2022-10-16T10:53:47;97333.25;;;22.60;47.31
55171;BME280;41060;47.510;8.680;2022-10-16T10:56:29;97327.91;;;22.45;48.51
55171;BME280;41060;47.510;8.680;2022-10-16T10:59:24;97330.03;;;22.71;49.47
55171;BME280;41060;47.510;8.680;2022-10-16T11:01:59;97316.22;;;22.81;47.66
55171;BME280;41060;47.510;8.680;2022-10-16T11:04:37;97320.56;;;23.03;47.66
55171;BME280;41060;47.510;8.680;2022-10-16T11:07:15;97320.50;;;23.18;48.51
55171;BME280;41060;47.510;8.680;2022-10-16T11:09:46;97317.47;;;23.27;47.48
55171;BME280;41060;47.510;8.680;2022-10-16T11:12:17;97308.81;;;23.11;47.88
55171;BME280;41060;47.510;8.680;2022-10-16T11:14:49;97317.25;;;23.29;46.88
55171;BME280;41060;47.510;8.680;2022-10-16T11:17:22;97300.03;;;23.36;47.13
55171;BME280;41060;47.510;8.680;2022-10-16T11:19:54;97289.25;;;23.36;46.68
55171;BME280;41060;47.510;8.680;2022-10-16T11:22:28;97298.53;;;23.62;46.62
55171;BME280;41060;47.510;8.680;2022-10-16T11:25:02;97299.63;;;23.74;45.89
55171;BME280;41060;47.510;8.680;2022-10-16T11:27:36;97296.09;;;23.73;46.90
55171;BME280;41060;47.510;8.680;2022-10-16T11:30:12;97293.91;;;23.84;47.32
55171;BME280;41060;47.510;8.680;2022-10-16T11:32:51;97287.53;;;24.04;45.10
55171;BME280;41060;47.510;8.680;2022-10-16T11:35:27;97286.16;;;24.22;45.52
55171;BME280;41060;47.510;8.680;2022-10-16T11:38:01;97276.22;;;24.42;44.06
55171;BME280;41060;47.510;8.680;2022-10-16T11:40:32;97276.22;;;24.48;44.25
55171;BME280;41060;47.510;8.680;2022-10-16T11:43:05;97283.31;;;24.56;43.68
55171;BME280;41060;47.510;8.680;2022-10-16T11:45:41;97275.63;;;24.79;43.48
55171;BME280;41060;47.510;8.680;2022-10-16T11:48:17;97283.78;;;25.19;43.44
55171;BME280;41060;47.510;8.680;2022-10-16T11:50:50;97281.41;;;25.62;42.22
55171;BME280;41060;47.510;8.680;2022-10-16T11:53:35;97282.25;;;25.69;41.18
55171;BME280;41060;47.510;8.680;2022-10-16T11:56:06;97287.03;;;25.80;41.45
55171;BME280;41060;47.510;8.680;2022-10-16T11:58:39;97275.94;;;25.82;41.27
55171;BME280;41060;47.510;8.680;2022-10-16T12:01:17;97267.78;;;25.95;40.54
55171;BME280;41060;47.510;8.680;2022-10-16T12:03:55;97272.88;;;26.16;40.42
55171;BME280;41060;47.510;8.680;2022-10-16T12:06:31;97280.69;;;26.44;39.93
55171;BME280;41060;47.510;8.680;2022-10-16T12:09:00;97273.41;;;26.69;39.09
55171;BME280;41060;47.510;8.680;2022-10-16T12:11:35;97252.94;;;26.67;38.66
55171;BME280;41060;47.510;8.680;2022-10-16T12:14:07;97256.50;;;26.67;38.89
55171;BME280;41060;47.510;8.680;2022-10-16T12:16:51;97269.41;;;26.47;37.59
55171;BME280;41060;47.510;8.680;2022-10-16T12:19:20;97239.28;;;26.17;38.08
55171;BME280;41060;47.510;8.680;2022-10-16T12:21:50;97239.03;;;26.57;38.13
55171;BME280;41060;47.510;8.680;2022-10-16T12:24:32;97255.03;;;26.65;37.94
55171;BME280;41060;47.510;8.680;2022-10-16T12:27:00;97260.13;;;26.86;38.43
55171;BME280;41060;47.510;8.680;2022-10-16T12:29:36;97254.25;;;27.14;37.14
55171;BME280;41060;47.510;8.680;2022-10-16T12:32:23;97241.91;;;27.36;36.97
55171;BME280;41060;47.510;8.680;2022-10-16T12:34:54;97252.38;;;27.57;37.54
55171;BME280;41060;47.510;8.680;2022-10-16T12:37:24;97243.53;;;27.62;36.92
55171;BME280;41060;47.510;8.680;2022-10-16T12:39:52;97237.69;;;27.77;37.07
55171;BME280;41060;47.510;8.680;2022-10-16T12:42:23;97237.84;;;28.00;36.74
55171;BME280;41060;47.510;8.680;2022-10-16T12:44:52;97238.25;;;27.49;36.20
55171;BME280;41060;47.510;8.680;2022-10-16T12:47:21;97238.03;;;27.26;37.43
55171;BME280;41060;47.510;8.680;2022-10-16T12:49:50;97224.59;;;27.12;37.55
55171;BME280;41060;47.510;8.680;2022-10-16T12:52:28;97242.44;;;27.02;37.60
55171;BME280;41060;47.510;8.680;2022-10-16T12:54:56;97231.91;;;27.12;38.47
55171;BME280;41060;47.510;8.680;2022-10-16T12:57:38;97232.19;;;27.22;37.66
55171;BME280;41060;47.510;8.680;2022-10-16T13:00:13;97235.00;;;27.15;36.95
55171;BME280;41060;47.510;8.680;2022-10-16T13:03:12;97234.19;;;27.33;36.16
55171;BME280;41060;47.510;8.680;2022-10-16T13:05:58;97230.59;;;27.14;37.86
55171;BME280;41060;47.510;8.680;2022-10-16T13:08:48;97234.41;;;27.13;37.18
55171;BME280;41060;47.510;8.680;2022-10-16T13:11:31;97204.44;;;27.38;36.19
55171;BME280;41060;47.510;8.680;2022-10-16T13:14:14;97235.50;;;27.67;36.02
55171;BME280;41060;47.510;8.680;2022-10-16T13:16:50;97231.34;;;27.46;36.76
55171;BME280;41060;47.510;8.680;2022-10-16T13:19:28;97239.66;;;27.51;37.58
55171;BME280;41060;47.510;8.680;2022-10-16T13:22:02;97245.34;;;27.50;37.01